createdAt,value
2018-04-25T00:00:46.611Z,59.17
2018-04-25T00:03:16.692Z,58.86
2018-04-25T00:05:46.019Z,58.92
2018-04-25T00:08:15.346Z,58.98
2018-04-25T00:10:45.424Z,58.82
2018-04-25T00:13:14.745Z,58.73
2018-04-25T00:15:44.073Z,58.90
2018-04-25T00:18:14.154Z,59.08
2018-04-25T00:20:43.501Z,58.53
2018-04-25T00:23:13.574Z,58.21
2018-04-25T00:25:42.869Z,58.26
2018-04-25T00:28:12.212Z,58.22
2018-04-25T00:30:42.273Z,57.99
2018-04-25T00:33:11.578Z,57.28
2018-04-25T00:35:40.911Z,57.17
2018-04-25T00:38:10.232Z,56.70
2018-04-25T00:40:39.530Z,56.42
2018-04-25T00:43:08.864Z,56.24
2018-04-25T00:45:38.979Z,56.21
2018-04-25T00:48:08.258Z,56.23
2018-04-25T00:50:37.567Z,55.48
2018-04-25T00:53:07.634Z,55.72
2018-04-25T00:55:36.955Z,55.45
2018-04-25T00:58:06.298Z,55.66
2018-04-25T01:00:36.367Z,55.82
2018-04-25T01:03:05.711Z,55.99
2018-04-25T01:05:35.021Z,56.14
2018-04-25T01:08:04.903Z,56.33
2018-04-25T01:10:34.233Z,56.23
2018-04-25T01:13:03.536Z,56.41
2018-04-25T01:15:33.431Z,56.34
2018-04-25T01:18:02.759Z,56.33
2018-04-25T01:20:32.852Z,55.92
2018-04-25T01:23:15.593Z,55.86
2018-04-25T01:25:45.681Z,55.80
2018-04-25T01:28:18.424Z,55.41
2018-04-25T01:31:10.859Z,55.56
2018-04-25T01:33:56.857Z,55.13
2018-04-25T01:36:36.549Z,55.29
2018-04-25T01:42:48.903Z,54.96
2018-04-25T01:45:29.896Z,54.79
2018-04-25T01:48:07.418Z,55.05
2018-04-25T01:50:37.812Z,54.63
2018-04-25T01:53:24.800Z,54.28
2018-04-25T01:56:12.387Z,54.30
2018-04-25T01:58:59.811Z,54.10
2018-04-25T02:01:28.608Z,54.14
2018-04-25T02:04:00.765Z,54.21
2018-04-25T02:06:30.868Z,54.20
2018-04-25T02:09:00.963Z,54.21
2018-04-25T02:11:30.301Z,54.21
2018-04-25T02:13:59.603Z,54.39
2018-04-25T02:16:29.722Z,54.54
2018-04-25T02:18:59.019Z,54.49
2018-04-25T02:21:29.106Z,54.61
2018-04-25T02:23:58.455Z,54.76
2018-04-25T02:26:28.523Z,54.83
2018-04-25T02:28:57.866Z,55.53
2018-04-25T02:31:27.173Z,55.34
2018-04-25T02:33:57.256Z,55.53
2018-04-25T02:36:26.570Z,55.73
2018-04-25T02:38:55.891Z,55.85
2018-04-25T02:41:25.419Z,56.05
2018-04-25T02:43:55.483Z,56.41
2018-04-25T02:46:24.816Z,56.55
2018-04-25T02:48:54.350Z,56.59
2018-04-25T02:51:24.445Z,56.96
2018-04-25T02:53:53.757Z,57.00
2018-04-25T02:56:23.853Z,57.08
2018-04-25T02:58:53.437Z,57.20
2018-04-25T03:01:22.754Z,57.27
2018-04-25T03:03:52.075Z,57.52
2018-04-25T03:06:21.415Z,57.67
2018-04-25T03:08:50.736Z,57.87
2018-04-25T03:11:20.033Z,57.79
2018-04-25T03:13:49.351Z,57.99
2018-04-25T03:16:18.687Z,58.39
2018-04-25T03:18:47.987Z,58.24
2018-04-25T03:21:17.316Z,58.55
2018-04-25T03:23:47.391Z,58.36
2018-04-25T03:26:16.729Z,58.45
2018-04-25T03:28:46.049Z,58.71
2018-04-25T03:31:16.151Z,58.83
2018-04-25T03:33:46.247Z,59.10
2018-04-25T03:36:15.585Z,59.21
2018-04-25T03:38:45.663Z,59.22
2018-04-25T03:41:15.019Z,59.39
2018-04-25T03:43:45.104Z,59.32
2018-04-25T03:46:14.405Z,59.44
2018-04-25T03:48:43.724Z,59.39
2018-04-25T03:51:13.047Z,59.77
2018-04-25T03:53:42.356Z,59.81
2018-04-25T03:56:11.683Z,59.73
2018-04-25T03:58:41.007Z,60.01
2018-04-25T04:01:10.327Z,59.95
2018-04-25T04:03:39.684Z,60.02
2018-04-25T04:06:08.987Z,59.99
2018-04-25T04:08:38.293Z,59.89
2018-04-25T04:11:07.637Z,60.00
2018-04-25T04:13:37.049Z,60.18
2018-04-25T04:16:06.347Z,60.15
2018-04-25T04:18:35.695Z,60.23
2018-04-25T04:21:05.033Z,60.45
2018-04-25T04:23:34.367Z,60.56
2018-04-25T04:26:04.484Z,60.56
2018-04-25T04:28:33.798Z,60.66
2018-04-25T04:31:03.901Z,60.68
2018-04-25T04:33:33.252Z,60.75
2018-04-25T04:36:02.572Z,60.82
2018-04-25T04:38:31.908Z,61.13
2018-04-25T04:41:01.811Z,61.48
2018-04-25T04:43:31.183Z,61.43
2018-04-25T04:46:00.465Z,61.06
2018-04-25T04:48:29.763Z,61.06
2018-04-25T04:50:59.097Z,60.87
2018-04-25T04:53:28.402Z,60.96
2018-04-25T04:55:57.697Z,60.83
2018-04-25T04:58:27.014Z,60.96
2018-04-25T05:00:56.335Z,61.05
2018-04-25T05:03:26.545Z,61.36
2018-04-25T05:05:56.618Z,61.36
2018-04-25T05:08:26.028Z,61.20
2018-04-25T05:10:55.242Z,61.29
2018-04-25T05:13:25.463Z,60.48
2018-04-25T05:15:54.758Z,60.34
2018-04-25T05:18:24.089Z,60.10
2018-04-25T05:20:53.637Z,60.43
2018-04-25T05:23:22.944Z,60.62
2018-04-25T05:25:53.052Z,60.83
2018-04-25T05:28:22.366Z,61.41
2018-04-25T05:30:52.958Z,62.18
2018-04-25T05:33:23.294Z,63.29
2018-04-25T05:35:52.667Z,63.06
2018-04-25T05:38:22.600Z,63.82
2018-04-25T05:40:51.917Z,65.68
2018-04-25T05:43:21.222Z,67.54
2018-04-25T05:45:50.558Z,69.27
2018-04-25T05:48:21.237Z,70.19
2018-04-25T05:50:50.667Z,71.27
2018-04-25T05:53:19.973Z,71.30
2018-04-25T05:55:49.302Z,72.19
2018-04-25T05:58:19.370Z,72.46
2018-04-25T06:00:48.677Z,73.02
2018-04-25T06:03:17.992Z,73.28
2018-04-25T06:05:47.342Z,72.90
2018-04-25T06:08:16.667Z,73.95
2018-04-25T06:10:45.991Z,74.49
2018-04-25T06:13:15.298Z,74.64
2018-04-25T06:15:44.638Z,74.49
2018-04-25T06:18:14.742Z,75.05
2018-04-25T06:20:44.222Z,74.96
2018-04-25T06:23:13.534Z,75.16
2018-04-25T06:25:42.863Z,75.15
2018-04-25T06:28:12.983Z,75.52
2018-04-25T06:30:42.257Z,76.18
2018-04-25T06:33:11.588Z,76.25
2018-04-25T06:35:40.891Z,75.77
2018-04-25T06:38:10.977Z,74.88
2018-04-25T06:40:40.280Z,75.27
2018-04-25T06:43:09.617Z,74.92
2018-04-25T06:45:39.705Z,75.28
2018-04-25T06:48:09.020Z,75.46
2018-04-25T06:50:38.426Z,75.36
2018-04-25T06:53:07.758Z,75.46
2018-04-25T06:55:37.865Z,75.01
2018-04-25T06:58:07.167Z,75.55
2018-04-25T07:00:37.272Z,75.22
2018-04-25T07:03:06.610Z,74.92
2018-04-25T07:05:36.765Z,74.90
2018-04-25T07:08:06.083Z,74.10
2018-04-25T07:10:35.413Z,73.27
2018-04-25T07:13:04.753Z,73.50
2018-04-25T07:15:34.046Z,73.08
2018-04-25T07:18:03.398Z,73.42
2018-04-25T07:20:32.720Z,72.56
2018-04-25T07:23:02.033Z,72.55
2018-04-25T07:25:32.126Z,72.18
2018-04-25T07:28:01.394Z,70.53
2018-04-25T07:30:30.765Z,71.77
2018-04-25T07:33:00.830Z,71.68
2018-04-25T07:35:30.180Z,71.29
2018-04-25T07:37:59.491Z,70.64
2018-04-25T07:40:28.792Z,70.65
2018-04-25T07:42:58.875Z,69.74
2018-04-25T07:45:28.175Z,69.34
2018-04-25T07:47:57.473Z,68.85
2018-04-25T07:50:27.718Z,68.72
2018-04-25T07:52:57.039Z,67.61
2018-04-25T07:55:27.122Z,66.57
2018-04-25T07:57:56.453Z,68.41
2018-04-25T08:00:25.767Z,66.73
2018-04-25T08:02:55.860Z,65.37
2018-04-25T08:05:25.159Z,64.72
2018-04-25T08:07:54.485Z,64.31
2018-04-25T08:10:23.807Z,64.22
2018-04-25T08:13:11.840Z,63.43
2018-04-25T08:15:59.618Z,64.29
2018-04-25T08:18:46.623Z,64.32
2018-04-25T08:21:33.899Z,64.25
2018-04-25T08:24:03.201Z,63.71
2018-04-25T08:26:32.537Z,62.95
2018-04-25T08:29:02.608Z,64.32
2018-04-25T08:31:31.928Z,65.83
2018-04-25T08:34:01.237Z,67.07
2018-04-25T08:36:30.569Z,67.75
2018-04-25T08:38:59.893Z,68.76
2018-04-25T08:41:29.223Z,69.66
2018-04-25T08:44:00.069Z,70.12
2018-04-25T08:46:29.409Z,69.29
2018-04-25T08:48:58.711Z,70.97
2018-04-25T08:51:28.024Z,71.36
2018-04-25T08:53:57.387Z,71.38
2018-04-25T08:56:28.397Z,71.93
2018-04-25T08:58:58.483Z,71.90
2018-04-25T09:01:27.783Z,71.91
2018-04-25T09:03:57.122Z,72.24
2018-04-25T09:06:26.432Z,72.23
2018-04-25T09:08:55.737Z,71.91
2018-04-25T09:11:25.060Z,71.20
2018-04-25T09:13:54.374Z,70.44
2018-04-25T09:16:24.489Z,67.68
2018-04-25T09:18:53.807Z,65.76
2018-04-25T09:21:23.897Z,63.39
2018-04-25T09:23:53.221Z,61.17
2018-04-25T09:26:23.307Z,59.50
2018-04-25T09:28:53.389Z,58.57
2018-04-25T09:31:22.683Z,55.63
2018-04-25T09:33:52.685Z,52.86
2018-04-25T09:36:22.769Z,53.67
2018-04-25T09:38:52.075Z,51.49
2018-04-25T09:41:21.401Z,50.99
2018-04-25T09:43:50.726Z,48.06
2018-04-25T09:46:20.062Z,48.43
2018-04-25T09:48:49.362Z,49.29
2018-04-25T09:51:18.678Z,50.32
2018-04-25T09:53:47.980Z,49.56
2018-04-25T09:56:17.287Z,50.31
2018-04-25T09:58:47.379Z,49.01
2018-04-25T10:01:22.374Z,47.57
2018-04-25T10:03:52.515Z,48.40
2018-04-25T10:06:21.786Z,48.43
2018-04-25T10:08:51.117Z,48.53
2018-04-25T10:11:21.194Z,48.63
2018-04-25T10:13:50.491Z,48.02
2018-04-25T10:16:19.820Z,47.64
2018-04-25T10:18:49.134Z,48.19
2018-04-25T10:21:19.200Z,47.43
2018-04-25T10:23:48.555Z,47.18
2018-04-25T10:26:17.858Z,46.78
2018-04-25T10:28:47.921Z,45.86
2018-04-25T10:31:17.227Z,45.96
2018-04-25T10:33:46.553Z,46.52
2018-04-25T10:36:15.865Z,44.92
2018-04-25T10:38:45.165Z,45.61
2018-04-25T10:41:14.492Z,45.11
2018-04-25T10:43:44.596Z,46.18
2018-04-25T10:46:13.893Z,46.25
2018-04-25T10:48:43.194Z,47.59
2018-04-25T10:51:12.518Z,46.50
2018-04-25T10:53:42.587Z,46.90
2018-04-25T10:56:11.903Z,45.54
2018-04-25T10:58:41.224Z,44.90
2018-04-25T11:01:10.526Z,45.50
2018-04-25T11:03:39.831Z,45.57
2018-04-25T11:06:09.155Z,45.38
2018-04-25T11:08:39.285Z,44.71
2018-04-25T11:11:08.529Z,44.55
2018-04-25T11:13:37.848Z,44.83
2018-04-25T11:16:07.154Z,43.47
2018-04-25T11:18:36.451Z,42.73
2018-04-25T11:21:05.783Z,42.51
2018-04-25T11:23:35.842Z,42.81
2018-04-25T11:26:05.143Z,41.59
2018-04-25T11:28:34.504Z,41.60
2018-04-25T11:31:04.599Z,39.81
2018-04-25T11:33:34.103Z,41.26
2018-04-25T11:36:03.408Z,40.18
2018-04-25T11:38:32.736Z,40.26
2018-04-25T11:41:02.820Z,39.53
2018-04-25T11:43:32.127Z,40.93
2018-04-25T11:46:01.431Z,40.97
2018-04-25T11:48:30.769Z,41.04
2018-04-25T11:51:00.826Z,40.67
2018-04-25T11:53:30.147Z,40.02
2018-04-25T11:55:59.484Z,40.46
2018-04-25T11:58:28.796Z,41.05
2018-04-25T12:00:58.873Z,41.90
2018-04-25T12:03:28.175Z,42.32
2018-04-25T12:05:57.498Z,43.36
2018-04-25T12:08:26.827Z,43.68
2018-04-25T12:10:56.937Z,43.90
2018-04-25T12:13:26.258Z,44.13
2018-04-25T12:15:56.359Z,44.02
2018-04-25T12:18:25.664Z,43.32
2018-04-25T12:20:55.734Z,40.98
2018-04-25T12:23:25.064Z,39.76
2018-04-25T12:25:54.424Z,39.16
2018-04-25T12:28:23.738Z,39.27
2018-04-25T12:30:53.057Z,39.66
2018-04-25T12:33:22.356Z,39.46
2018-04-25T12:35:52.513Z,39.88
2018-04-25T12:38:21.766Z,41.08
2018-04-25T12:40:51.082Z,41.27
2018-04-25T12:43:20.374Z,40.45
2018-04-25T12:45:49.707Z,40.60
2018-04-25T12:48:19.019Z,40.99
2018-04-25T12:50:48.322Z,40.64
2018-04-25T12:53:17.655Z,40.93
2018-04-25T12:55:46.961Z,41.92
2018-04-25T12:58:16.440Z,42.38
2018-04-25T13:00:45.750Z,42.28
2018-04-25T13:03:15.818Z,43.05
2018-04-25T13:05:45.135Z,44.45
2018-04-25T13:08:14.477Z,44.13
2018-04-25T13:10:44.554Z,43.40
2018-04-25T13:13:13.850Z,42.06
2018-04-25T13:15:43.180Z,40.85
2018-04-25T13:18:12.496Z,40.12
2018-04-25T13:20:42.574Z,38.49
2018-04-25T13:23:11.909Z,38.52
2018-04-25T13:25:41.203Z,38.47
2018-04-25T13:28:10.529Z,38.42
2018-04-25T13:30:40.595Z,38.05
2018-04-25T13:33:09.917Z,37.58
2018-04-25T13:35:39.257Z,36.49
2018-04-25T13:38:09.338Z,36.77
2018-04-25T13:40:38.639Z,37.31
2018-04-25T13:43:07.942Z,37.28
2018-04-25T13:45:37.284Z,37.24
2018-04-25T13:48:07.346Z,37.28
2018-04-25T13:50:36.683Z,38.11
2018-04-25T13:53:06.007Z,38.30
2018-04-25T13:55:36.077Z,36.14
2018-04-25T13:58:05.408Z,36.07
2018-04-25T14:00:34.723Z,36.22
2018-04-25T14:03:04.033Z,36.42
2018-04-25T14:05:34.126Z,36.98
2018-04-25T14:08:03.430Z,37.00
2018-04-25T14:10:32.741Z,36.59
2018-04-25T14:13:02.083Z,36.56
2018-04-25T14:15:32.138Z,36.44
2018-04-25T14:18:02.226Z,36.75
2018-04-25T14:20:31.535Z,36.69
2018-04-25T14:23:00.860Z,36.19
2018-04-25T14:25:30.172Z,36.27
2018-04-25T14:27:59.529Z,36.12
2018-04-25T14:30:29.652Z,36.21
2018-04-25T14:32:58.927Z,37.22
2018-04-25T14:35:28.247Z,37.93
2018-04-25T14:37:58.318Z,38.79
2018-04-25T14:40:28.399Z,38.83
2018-04-25T14:42:57.711Z,38.58
2018-04-25T14:45:27.056Z,38.23
2018-04-25T14:47:56.362Z,38.56
2018-04-25T14:50:25.666Z,38.41
2018-04-25T14:52:54.984Z,38.72
2018-04-25T14:55:25.056Z,38.30
2018-04-25T14:57:54.372Z,38.59
2018-04-25T15:00:24.446Z,39.16
2018-04-25T15:02:54.562Z,38.59
2018-04-25T15:05:24.646Z,38.73
2018-04-25T15:07:53.947Z,38.49
2018-04-25T15:10:23.285Z,38.90
2018-04-25T15:12:56.139Z,39.11
2018-04-25T15:15:25.436Z,39.13
2018-04-25T15:17:54.763Z,38.60
2018-04-25T15:20:24.839Z,38.62
2018-04-25T15:22:54.158Z,38.33
2018-04-25T15:25:23.529Z,38.76
2018-04-25T15:27:53.554Z,38.79
2018-04-25T15:30:22.879Z,38.94
2018-04-25T15:32:52.190Z,39.08
2018-04-25T15:35:21.520Z,38.65
2018-04-25T15:37:51.648Z,38.49
2018-04-25T15:40:21.718Z,38.47
2018-04-25T15:42:51.038Z,38.32
2018-04-25T15:45:20.365Z,38.27
2018-04-25T15:47:49.662Z,38.07
2018-04-25T15:50:19.001Z,37.80
2018-04-25T15:52:48.308Z,38.12
2018-04-25T15:55:17.608Z,38.22
2018-04-25T15:57:46.928Z,38.44
2018-04-25T16:00:16.285Z,38.80
2018-04-25T16:02:46.355Z,39.33
2018-04-25T16:05:15.855Z,39.49
2018-04-25T16:07:45.198Z,39.20
2018-04-25T16:10:14.509Z,39.82
2018-04-25T16:12:43.822Z,40.18
2018-04-25T16:15:13.918Z,40.39
2018-04-25T16:17:43.224Z,40.69
2018-04-25T16:20:12.561Z,41.16
2018-04-25T16:22:42.669Z,41.15
2018-04-25T16:25:11.976Z,42.46
2018-04-25T16:27:42.055Z,45.56
2018-04-25T16:30:11.363Z,46.42
2018-04-25T16:32:40.690Z,46.50
2018-04-25T16:35:10.771Z,47.09
2018-04-25T16:37:40.088Z,47.74
2018-04-25T16:40:09.418Z,47.20
2018-04-25T16:42:39.484Z,46.34
2018-04-25T16:45:08.832Z,45.68
2018-04-25T16:47:38.156Z,45.74
2018-04-25T16:50:08.218Z,45.04
2018-04-25T16:52:37.544Z,44.67
2018-04-25T16:55:06.852Z,44.97
2018-04-25T16:57:36.197Z,44.50
2018-04-25T17:00:05.490Z,45.15
2018-04-25T17:02:35.694Z,45.48
2018-04-25T17:05:05.030Z,46.69
2018-04-25T17:07:34.332Z,47.48
2018-04-25T17:10:04.333Z,48.56
2018-04-25T17:12:34.440Z,48.91
2018-04-25T17:15:04.008Z,48.82
2018-04-25T17:17:34.094Z,47.18
2018-04-25T17:20:03.565Z,48.97
2018-04-25T17:22:32.885Z,48.51
2018-04-25T17:25:03.137Z,47.96
2018-04-25T17:27:33.026Z,47.05
2018-04-25T17:30:03.147Z,44.91
2018-04-25T17:32:32.560Z,43.48
2018-04-25T17:35:02.781Z,43.21
2018-04-25T17:37:32.954Z,43.53
2018-04-25T17:40:02.258Z,43.82
2018-04-25T17:42:31.658Z,45.43
2018-04-25T17:45:00.982Z,43.87
2018-04-25T17:47:30.301Z,43.17
2018-04-25T17:49:59.776Z,43.23
2018-04-25T17:52:29.288Z,43.31
2018-04-25T17:54:58.582Z,44.14
2018-04-25T17:57:27.947Z,45.44
2018-04-25T17:59:57.218Z,46.41
2018-04-25T18:02:26.532Z,44.60
2018-04-25T18:04:56.633Z,44.27
2018-04-25T18:07:26.289Z,44.76
2018-04-25T18:09:55.584Z,45.02
2018-04-25T18:12:24.895Z,45.07
2018-04-25T18:14:54.439Z,44.63
2018-04-25T18:17:23.788Z,44.94
2018-04-25T18:19:53.856Z,45.22
2018-04-25T18:22:24.171Z,44.88
2018-04-25T18:24:53.458Z,45.25
2018-04-25T18:27:22.788Z,45.44
2018-04-25T18:29:52.085Z,45.46
2018-04-25T18:32:21.402Z,45.37
2018-04-25T18:34:50.836Z,45.56
2018-04-25T18:37:20.330Z,45.90
2018-04-25T18:39:49.638Z,46.02
2018-04-25T18:42:18.996Z,45.94
2018-04-25T18:44:48.308Z,45.89
2018-04-25T18:47:17.670Z,46.99
2018-04-25T18:49:46.987Z,47.55
2018-04-25T18:52:16.452Z,48.26
2018-04-25T18:54:45.819Z,48.78
2018-04-25T18:57:15.173Z,48.98
2018-04-25T18:59:45.247Z,49.38
2018-04-25T19:02:14.865Z,49.15
2018-04-25T19:04:44.169Z,49.34
2018-04-25T19:07:13.556Z,49.62
2018-04-25T19:09:42.842Z,49.68
2018-04-25T19:12:12.198Z,49.63
2018-04-25T19:14:41.483Z,49.27
2018-04-25T19:17:10.828Z,49.70
2018-04-25T19:19:40.180Z,49.85
2018-04-25T19:22:09.553Z,50.00
2018-04-25T19:24:38.875Z,49.97
2018-04-25T19:27:08.194Z,49.78
2018-04-25T19:29:37.514Z,49.95
2018-04-25T19:32:06.855Z,49.90
2018-04-25T19:34:36.158Z,49.93
2018-04-25T19:37:06.250Z,49.93
2018-04-25T19:39:36.322Z,50.06
2018-04-25T19:42:05.624Z,50.31
2018-04-25T19:44:34.975Z,50.68
2018-04-25T19:47:05.039Z,50.53
2018-04-25T19:49:34.377Z,56.09
2018-04-25T19:52:03.731Z,55.62
2018-04-25T19:54:33.044Z,55.95
2018-04-25T19:57:02.338Z,54.18
2018-04-25T19:59:31.658Z,52.59
2018-04-25T20:02:00.988Z,51.74
2018-04-25T20:04:30.313Z,51.73
2018-04-25T20:07:00.416Z,51.77
2018-04-25T20:09:29.740Z,51.86
2018-04-25T20:11:59.825Z,52.00
2018-04-25T20:14:29.186Z,50.90
2018-04-25T20:16:58.496Z,50.99
2018-04-25T20:19:27.816Z,51.06
2018-04-25T20:21:57.153Z,50.49
2018-04-25T20:24:26.457Z,51.11
2018-04-25T20:26:55.798Z,50.30
2018-04-25T20:29:25.138Z,51.46
2018-04-25T20:31:54.955Z,54.40
2018-04-25T20:34:24.346Z,57.62
2018-04-25T20:36:53.659Z,58.05
2018-04-25T20:39:23.005Z,59.60
2018-04-25T20:41:53.118Z,59.87
2018-04-25T20:44:22.513Z,60.34
2018-04-25T20:46:51.831Z,60.42
2018-04-25T20:49:21.915Z,60.76
2018-04-25T20:51:51.290Z,61.72
2018-04-25T20:54:22.969Z,61.00
2018-04-25T20:56:53.296Z,61.90
2018-04-25T20:59:23.325Z,61.53
2018-04-25T21:01:52.670Z,61.79
2018-04-25T21:04:22.740Z,62.24
2018-04-25T21:06:52.064Z,62.71
2018-04-25T21:09:21.442Z,63.28
2018-04-25T21:11:50.894Z,63.51
2018-04-25T21:14:21.014Z,63.66
2018-04-25T21:16:50.359Z,63.74
2018-04-25T21:19:19.729Z,63.22
2018-04-25T21:21:49.840Z,63.34
2018-04-25T21:24:19.934Z,63.40
2018-04-25T21:26:49.264Z,63.80
2018-04-25T21:29:18.587Z,62.92
2018-04-25T21:31:48.137Z,63.22
2018-04-25T21:34:17.431Z,62.63
2018-04-25T21:36:46.762Z,63.04
2018-04-25T21:39:16.058Z,63.40
2018-04-25T21:41:45.396Z,64.05
2018-04-25T21:44:15.484Z,63.95
2018-04-25T21:46:44.785Z,64.26
2018-04-25T21:49:14.131Z,64.20
2018-04-25T21:51:43.444Z,64.60
2018-04-25T21:54:12.762Z,64.80
2018-04-25T21:56:42.072Z,65.21
2018-04-25T21:59:11.395Z,64.53
2018-04-25T22:01:40.713Z,64.89
2018-04-25T22:04:10.093Z,64.81
2018-04-25T22:06:39.415Z,64.34
2018-04-25T22:09:08.752Z,62.70
2018-04-25T22:11:38.836Z,63.33
2018-04-25T22:14:08.156Z,62.57
2018-04-25T22:16:38.253Z,62.60
2018-04-25T22:19:07.594Z,62.44
2018-04-25T22:21:37.677Z,62.27
2018-04-25T22:24:07.004Z,62.82
2018-04-25T22:26:37.098Z,64.05
2018-04-25T22:29:06.420Z,62.36
2018-04-25T22:31:35.757Z,62.75
2018-04-25T22:34:05.071Z,62.54
2018-04-25T22:36:34.938Z,62.30
2018-04-25T22:39:04.277Z,61.96
2018-04-25T22:41:33.592Z,61.84
2018-04-25T22:44:02.915Z,62.73
2018-04-25T22:46:32.234Z,62.71
2018-04-25T22:49:01.587Z,61.81
2018-04-25T22:51:30.900Z,61.49
2018-04-25T22:54:00.214Z,60.66
2018-04-25T22:56:29.548Z,61.24
2018-04-25T22:58:58.872Z,59.60
2018-04-25T23:01:28.203Z,60.11
2018-04-25T23:03:57.517Z,59.45
2018-04-25T23:06:26.856Z,60.27
2018-04-25T23:08:56.166Z,59.10
2018-04-25T23:11:25.458Z,60.44
2018-04-25T23:13:54.799Z,59.03
2018-04-25T23:16:24.112Z,59.48
2018-04-25T23:18:53.456Z,58.32
2018-04-25T23:21:22.764Z,59.64
2018-04-25T23:23:52.070Z,58.14
2018-04-25T23:26:21.397Z,57.78
2018-04-25T23:28:51.548Z,59.70
2018-04-25T23:31:20.874Z,58.57
2018-04-25T23:33:50.830Z,58.46
2018-04-25T23:36:20.143Z,57.70
2018-04-25T23:38:50.245Z,58.29
2018-04-25T23:41:19.549Z,59.58
2018-04-25T23:43:48.859Z,58.40
2018-04-25T23:46:18.303Z,59.14
2018-04-25T23:48:47.648Z,59.58
2018-04-25T23:51:16.940Z,59.32
2018-04-25T23:53:46.254Z,58.79
2018-04-25T23:56:15.579Z,58.85
2018-04-25T23:58:45.656Z,59.08
